createdAt,value
2022-09-24T04:00:28.880Z,12.47
2022-09-24T04:01:26.884Z,12.47
2022-09-24T04:02:26.828Z,12.46
2022-09-24T04:03:26.815Z,12.41
2022-09-24T04:04:26.786Z,12.46
2022-09-24T04:05:26.833Z,12.47
2022-09-24T04:06:26.765Z,12.42
2022-09-24T04:07:26.762Z,12.39
2022-09-24T04:08:26.754Z,12.46
2022-09-24T04:09:26.732Z,12.47
2022-09-24T04:10:26.734Z,12.47
2022-09-24T04:11:31.738Z,12.39
2022-09-24T04:12:26.763Z,12.32
2022-09-24T04:13:26.689Z,12.37
2022-09-24T04:14:26.692Z,12.24
2022-09-24T04:15:26.680Z,12.19
2022-09-24T04:16:26.724Z,12.12
2022-09-24T04:17:26.674Z,12.19
2022-09-24T04:18:26.765Z,12.10
2022-09-24T04:19:26.620Z,12.13
2022-09-24T04:20:26.623Z,12.21
2022-09-24T04:21:26.599Z,12.19
2022-09-24T04:22:31.612Z,12.28
2022-09-24T04:23:26.593Z,12.28
2022-09-24T04:24:26.565Z,12.23
2022-09-24T04:25:26.568Z,12.24
2022-09-24T04:26:26.579Z,12.21
2022-09-24T04:27:26.530Z,12.38
2022-09-24T04:28:26.527Z,12.34
2022-09-24T04:29:26.507Z,12.38
2022-09-24T04:30:26.511Z,12.28
2022-09-24T04:31:26.575Z,12.27
2022-09-24T04:32:26.498Z,12.32
2022-09-24T04:33:31.491Z,12.34
2022-09-24T04:34:26.455Z,12.34
2022-09-24T04:35:26.456Z,12.35
2022-09-24T04:36:26.427Z,12.31
2022-09-24T04:37:26.420Z,12.23
2022-09-24T04:38:26.407Z,12.32
2022-09-24T04:39:26.395Z,12.37
2022-09-24T04:40:26.404Z,12.38
2022-09-24T04:41:26.389Z,12.34
2022-09-24T04:42:26.378Z,12.27
2022-09-24T04:43:26.355Z,12.41
2022-09-24T04:44:31.363Z,12.37
2022-09-24T04:45:26.329Z,12.37
2022-09-24T04:46:26.380Z,12.37
2022-09-24T04:47:26.333Z,12.31
2022-09-24T04:48:26.343Z,12.39
2022-09-24T04:49:26.290Z,12.23
2022-09-24T04:50:26.278Z,12.27
2022-09-24T04:51:26.277Z,12.13
2022-09-24T04:52:26.260Z,12.20
2022-09-24T04:53:26.239Z,12.12
2022-09-24T04:54:26.226Z,12.12
2022-09-24T04:55:31.251Z,11.96
2022-09-24T04:56:26.210Z,12.09
2022-09-24T04:57:26.198Z,11.99
2022-09-24T04:58:26.197Z,11.98
2022-09-24T04:59:26.176Z,12.09
2022-09-24T05:00:26.177Z,11.96
2022-09-24T05:01:26.192Z,11.99
2022-09-24T05:02:26.226Z,11.99
2022-09-24T05:03:26.158Z,12.13
2022-09-24T05:04:26.221Z,12.16
2022-09-24T05:05:26.104Z,12.13
2022-09-24T05:06:31.125Z,12.12
2022-09-24T05:07:26.082Z,12.27
2022-09-24T05:08:26.076Z,12.24
2022-09-24T05:09:26.066Z,12.31
2022-09-24T05:10:26.058Z,12.28
2022-09-24T05:11:26.050Z,12.31
2022-09-24T05:12:26.029Z,12.24
2022-09-24T05:13:26.023Z,12.27
2022-09-24T05:14:26.008Z,12.32
2022-09-24T05:15:25.997Z,12.38
2022-09-24T05:16:26.060Z,12.31
2022-09-24T05:17:31.067Z,12.35
2022-09-24T05:18:25.957Z,12.41
2022-09-24T05:19:25.951Z,12.35
2022-09-24T05:20:25.975Z,12.31
2022-09-24T05:21:25.955Z,12.32
2022-09-24T05:22:25.933Z,12.37
2022-09-24T05:23:25.906Z,12.29
2022-09-24T05:24:25.890Z,12.35
2022-09-24T05:25:25.881Z,12.38
2022-09-24T05:26:25.909Z,12.37
2022-09-24T05:27:25.858Z,12.35
2022-09-24T05:28:30.868Z,12.35
2022-09-24T05:29:25.845Z,12.37
2022-09-24T05:30:25.826Z,12.41
2022-09-24T05:31:25.883Z,12.47
2022-09-24T05:32:25.809Z,12.47
2022-09-24T05:33:25.793Z,12.46
2022-09-24T05:34:25.780Z,12.46
2022-09-24T05:35:25.770Z,12.42
2022-09-24T05:36:25.794Z,12.46
2022-09-24T05:37:25.778Z,12.47
2022-09-24T05:38:25.741Z,12.57
2022-09-24T05:39:33.899Z,12.57
2022-09-24T05:40:25.766Z,12.60
2022-09-24T05:41:25.714Z,12.60
2022-09-24T05:42:25.709Z,12.54
2022-09-24T05:43:25.685Z,12.62
2022-09-24T05:44:25.668Z,12.62
2022-09-24T05:45:25.658Z,12.62
2022-09-24T05:46:25.716Z,12.54
2022-09-24T05:47:25.656Z,12.53
2022-09-24T05:48:25.629Z,12.52
2022-09-24T05:49:25.617Z,12.56
2022-09-24T05:50:30.628Z,12.54
2022-09-24T05:51:25.601Z,12.62
2022-09-24T05:52:25.683Z,12.59
2022-09-24T05:53:25.570Z,12.65
2022-09-24T05:54:25.555Z,12.68
2022-09-24T05:55:30.055Z,12.67
2022-09-24T05:56:26.558Z,12.68
2022-09-24T05:57:25.523Z,12.65
2022-09-24T05:58:25.530Z,12.71
2022-09-24T05:59:25.500Z,12.71
2022-09-24T06:00:25.492Z,12.82
2022-09-24T06:01:30.598Z,12.83
2022-09-24T06:02:25.515Z,12.85
2022-09-24T06:03:25.523Z,12.85
2022-09-24T06:04:25.446Z,12.87
2022-09-24T06:05:25.435Z,12.78
2022-09-24T06:06:25.431Z,12.87
2022-09-24T06:07:25.412Z,12.83
2022-09-24T06:08:25.417Z,12.89
2022-09-24T06:09:25.390Z,12.82
2022-09-24T06:10:25.383Z,12.85
2022-09-24T06:11:25.393Z,12.82
2022-09-24T06:12:30.401Z,12.82
2022-09-24T06:13:25.343Z,12.85
2022-09-24T06:14:25.332Z,12.85
2022-09-24T06:15:25.324Z,12.87
2022-09-24T06:16:25.409Z,12.74
2022-09-24T06:17:25.299Z,12.78
2022-09-24T06:18:25.291Z,12.74
2022-09-24T06:19:25.274Z,12.75
2022-09-24T06:20:25.265Z,12.70
2022-09-24T06:21:25.286Z,12.72
2022-09-24T06:22:28.545Z,12.79
2022-09-24T06:23:30.272Z,12.82
2022-09-24T06:24:25.220Z,12.87
2022-09-24T06:25:25.209Z,12.71
2022-09-24T06:26:25.206Z,12.82
2022-09-24T06:27:25.187Z,12.74
2022-09-24T06:28:25.175Z,12.85
2022-09-24T06:29:25.162Z,12.93
2022-09-24T06:30:25.153Z,12.89
2022-09-24T06:31:25.204Z,12.89
2022-09-24T06:32:25.130Z,12.93
2022-09-24T06:33:25.121Z,12.89
2022-09-24T06:34:30.131Z,12.90
2022-09-24T06:35:25.096Z,13.00
2022-09-24T06:36:25.098Z,13.00
2022-09-24T06:37:25.071Z,13.01
2022-09-24T06:38:25.068Z,13.08
2022-09-24T06:39:25.069Z,13.08
2022-09-24T06:40:25.118Z,13.03
2022-09-24T06:41:25.037Z,13.20
2022-09-24T06:42:25.016Z,13.07
2022-09-24T06:43:25.005Z,13.22
2022-09-24T06:44:24.997Z,13.10
2022-09-24T06:45:30.006Z,13.14
2022-09-24T06:46:25.005Z,13.17
2022-09-24T06:47:24.971Z,13.20
2022-09-24T06:48:24.951Z,13.28
2022-09-24T06:49:26.331Z,13.17
2022-09-24T06:50:24.949Z,13.22
2022-09-24T06:51:24.936Z,13.12
2022-09-24T06:52:24.908Z,13.28
2022-09-24T06:53:24.951Z,13.22
2022-09-24T06:54:24.893Z,13.19
2022-09-24T06:55:24.973Z,13.25
2022-09-24T06:56:29.904Z,13.28
2022-09-24T06:57:28.772Z,13.22
2022-09-24T06:58:24.840Z,13.30
2022-09-24T06:59:24.826Z,13.29
2022-09-24T07:00:24.899Z,13.38
2022-09-24T07:01:24.924Z,13.36
2022-09-24T07:02:24.875Z,13.36
2022-09-24T07:03:24.791Z,13.36
2022-09-24T07:04:24.773Z,13.33
2022-09-24T07:05:24.770Z,13.26
2022-09-24T07:06:24.750Z,13.26
2022-09-24T07:07:29.785Z,13.23
2022-09-24T07:08:24.738Z,13.25
2022-09-24T07:09:24.717Z,13.14
2022-09-24T07:10:24.791Z,13.20
2022-09-24T07:11:24.719Z,13.15
2022-09-24T07:12:24.696Z,13.17
2022-09-24T07:13:24.679Z,13.15
2022-09-24T07:14:24.676Z,13.20
2022-09-24T07:15:24.652Z,13.12
2022-09-24T07:16:24.772Z,13.17
2022-09-24T07:17:24.643Z,13.28
2022-09-24T07:18:29.643Z,13.28
2022-09-24T07:19:24.618Z,13.29
2022-09-24T07:20:24.728Z,13.33
2022-09-24T07:21:24.585Z,13.29
2022-09-24T07:22:24.589Z,13.44
2022-09-24T07:23:24.563Z,13.41
2022-09-24T07:24:24.567Z,13.44
2022-09-24T07:25:24.561Z,13.32
2022-09-24T07:26:24.552Z,13.54
2022-09-24T07:27:24.633Z,13.52
2022-09-24T07:28:24.521Z,13.57
2022-09-24T07:29:29.547Z,13.60
2022-09-24T07:30:24.563Z,13.54
2022-09-24T07:31:24.550Z,13.51
2022-09-24T07:32:29.578Z,13.48
2022-09-24T07:33:25.473Z,13.51
2022-09-24T07:34:24.443Z,13.49
2022-09-24T07:35:24.430Z,13.46
2022-09-24T07:36:24.431Z,13.38
2022-09-24T07:37:24.434Z,13.46
2022-09-24T07:38:24.567Z,13.52
2022-09-24T07:39:24.389Z,13.55
2022-09-24T07:40:29.579Z,13.49
2022-09-24T07:41:24.377Z,13.49
2022-09-24T07:42:24.375Z,13.49
2022-09-24T07:43:24.452Z,13.57
2022-09-24T07:44:24.336Z,13.66
2022-09-24T07:45:24.322Z,13.81
2022-09-24T07:46:24.344Z,13.85
2022-09-24T07:47:24.310Z,14.03
2022-09-24T07:48:24.306Z,14.07
2022-09-24T07:49:24.283Z,14.15
2022-09-24T07:50:24.269Z,14.18
2022-09-24T07:51:29.277Z,14.14
2022-09-24T07:52:24.255Z,14.12
2022-09-24T07:53:24.246Z,14.17
2022-09-24T07:54:24.226Z,14.18
2022-09-24T07:55:24.216Z,14.22
2022-09-24T07:56:24.200Z,14.15
2022-09-24T07:57:24.209Z,14.17
2022-09-24T07:58:24.181Z,14.14
2022-09-24T07:59:24.195Z,14.27
2022-09-24T08:00:24.234Z,14.32
2022-09-24T08:01:24.227Z,14.39
2022-09-24T08:02:29.170Z,14.35
2022-09-24T08:03:24.191Z,14.40
2022-09-24T08:04:24.159Z,14.43
2022-09-24T08:05:24.108Z,14.46
2022-09-24T08:06:24.088Z,14.47
2022-09-24T08:07:24.096Z,14.60
2022-09-24T08:08:24.067Z,14.70
2022-09-24T08:09:24.056Z,14.72
2022-09-24T08:10:24.063Z,14.91
2022-09-24T08:11:24.065Z,15.06
2022-09-24T08:12:24.061Z,15.13
2022-09-24T08:13:29.039Z,15.11
2022-09-24T08:14:24.000Z,15.07
2022-09-24T08:15:24.094Z,15.03
2022-09-24T08:16:24.008Z,15.09
2022-09-24T08:17:23.992Z,15.11
2022-09-24T08:18:23.957Z,15.23
2022-09-24T08:19:23.981Z,15.10
2022-09-24T08:20:23.936Z,15.02
2022-09-24T08:21:23.923Z,14.91
2022-09-24T08:22:23.937Z,14.89
2022-09-24T08:23:23.897Z,14.84
2022-09-24T08:24:28.909Z,14.91
2022-09-24T08:25:23.874Z,14.89
2022-09-24T08:26:23.878Z,15.01
2022-09-24T08:27:23.888Z,14.92
2022-09-24T08:28:23.842Z,14.89
2022-09-24T08:29:23.834Z,14.86
2022-09-24T08:30:23.843Z,14.94
2022-09-24T08:31:23.997Z,14.92
2022-09-24T08:32:23.828Z,15.06
2022-09-24T08:33:23.792Z,15.01
2022-09-24T08:34:23.816Z,15.03
2022-09-24T08:35:28.801Z,15.03
2022-09-24T08:36:23.755Z,15.10
2022-09-24T08:37:23.755Z,15.23
2022-09-24T08:38:23.733Z,15.20
2022-09-24T08:39:23.726Z,15.13
2022-09-24T08:40:23.751Z,15.20
2022-09-24T08:41:23.697Z,15.25
2022-09-24T08:42:23.697Z,15.27
2022-09-24T08:43:23.688Z,15.27
2022-09-24T08:44:23.671Z,15.34
2022-09-24T08:45:23.651Z,15.31
2022-09-24T08:46:28.737Z,15.32
2022-09-24T08:47:23.642Z,15.35
2022-09-24T08:48:23.636Z,15.44
2022-09-24T08:49:23.605Z,15.32
2022-09-24T08:50:23.603Z,15.34
2022-09-24T08:51:23.584Z,15.39
2022-09-24T08:52:23.586Z,15.43
2022-09-24T08:53:23.569Z,15.36
2022-09-24T08:54:23.559Z,15.39
2022-09-24T08:55:23.539Z,15.32
2022-09-24T08:56:23.544Z,15.35
2022-09-24T08:57:28.587Z,15.38
2022-09-24T08:58:23.507Z,15.43
2022-09-24T08:59:23.499Z,15.35
2022-09-24T09:00:23.486Z,15.46
2022-09-24T09:01:23.588Z,15.49
2022-09-24T09:02:23.721Z,15.41
2022-09-24T09:03:23.469Z,15.46
2022-09-24T09:04:23.443Z,15.53
2022-09-24T09:05:23.471Z,15.50
2022-09-24T09:06:23.427Z,15.43
2022-09-24T09:07:23.426Z,15.50
2022-09-24T09:08:50.608Z,15.49
2022-09-24T09:09:24.388Z,15.50
2022-09-24T09:10:23.392Z,15.49
2022-09-24T09:11:23.364Z,15.51
2022-09-24T09:12:23.358Z,15.47
2022-09-24T09:13:23.362Z,15.50
2022-09-24T09:14:23.436Z,15.59
2022-09-24T09:15:23.319Z,15.49
2022-09-24T09:16:23.428Z,15.57
2022-09-24T09:17:23.293Z,15.60
2022-09-24T09:18:23.414Z,15.53
2022-09-24T09:19:28.294Z,15.69
2022-09-24T09:20:23.262Z,15.68
2022-09-24T09:21:23.332Z,15.65
2022-09-24T09:22:23.259Z,15.59
2022-09-24T09:23:23.241Z,15.65
2022-09-24T09:24:23.222Z,15.49
2022-09-24T09:25:23.216Z,15.64
2022-09-24T09:26:23.264Z,15.64
2022-09-24T09:27:23.186Z,15.49
2022-09-24T09:28:23.198Z,15.50
2022-09-24T09:29:23.164Z,15.50
2022-09-24T09:30:28.172Z,15.54
2022-09-24T09:31:23.191Z,15.47
2022-09-24T09:32:23.141Z,15.47
2022-09-24T09:33:23.143Z,15.41
2022-09-24T09:34:23.127Z,15.36
2022-09-24T09:35:23.098Z,15.20
2022-09-24T09:36:23.082Z,15.29
2022-09-24T09:37:25.988Z,15.36
2022-09-24T09:38:23.095Z,15.35
2022-09-24T09:39:23.047Z,15.34
2022-09-24T09:40:24.708Z,15.47
2022-09-24T09:41:28.052Z,15.49
2022-09-24T09:42:23.015Z,15.53
2022-09-24T09:43:23.021Z,15.56
2022-09-24T09:44:22.993Z,15.44
2022-09-24T09:45:27.509Z,15.44
2022-09-24T09:46:24.016Z,15.49
2022-09-24T09:47:22.979Z,15.53
2022-09-24T09:48:22.982Z,15.49
2022-09-24T09:49:22.936Z,15.59
2022-09-24T09:50:22.963Z,15.54
2022-09-24T09:51:23.510Z,15.60
2022-09-24T09:52:27.926Z,15.68
2022-09-24T09:53:22.959Z,15.69
2022-09-24T09:54:23.012Z,15.68
2022-09-24T09:55:22.871Z,15.72
2022-09-24T09:56:22.878Z,15.74
2022-09-24T09:57:22.862Z,15.72
2022-09-24T09:58:22.849Z,15.75
2022-09-24T09:59:28.776Z,15.75
2022-09-24T10:00:23.845Z,15.87
2022-09-24T10:01:22.819Z,15.96
2022-09-24T10:02:23.010Z,15.92
2022-09-24T10:03:27.863Z,15.93
2022-09-24T10:04:22.771Z,16.12
2022-09-24T10:05:27.177Z,16.17
2022-09-24T10:06:22.767Z,16.24
2022-09-24T10:07:22.734Z,16.30
2022-09-24T10:08:22.726Z,16.35
2022-09-24T10:09:22.734Z,16.52
2022-09-24T10:10:22.704Z,16.58
2022-09-24T10:11:22.695Z,16.68
2022-09-24T10:12:22.702Z,16.75
2022-09-24T10:13:22.672Z,16.71
2022-09-24T10:14:27.697Z,16.70
2022-09-24T10:15:22.645Z,16.75
2022-09-24T10:16:22.819Z,16.76
2022-09-24T10:17:22.650Z,16.81
2022-09-24T10:18:22.617Z,16.75
2022-09-24T10:19:22.613Z,16.85
2022-09-24T10:20:22.598Z,16.89
2022-09-24T10:21:26.098Z,16.88
2022-09-24T10:22:23.608Z,16.89
2022-09-24T10:23:22.565Z,16.89
2022-09-24T10:24:22.562Z,16.89
2022-09-24T10:25:27.561Z,16.86
2022-09-24T10:26:22.528Z,16.70
2022-09-24T10:27:22.512Z,16.75
2022-09-24T10:28:22.544Z,16.76
2022-09-24T10:29:22.505Z,16.67
2022-09-24T10:30:22.501Z,16.78
2022-09-24T10:31:22.632Z,16.88
2022-09-24T10:32:22.489Z,16.94
2022-09-24T10:33:22.450Z,16.93
2022-09-24T10:34:22.450Z,17.01
2022-09-24T10:35:22.427Z,17.03
2022-09-24T10:36:27.445Z,17.14
2022-09-24T10:37:22.408Z,17.01
2022-09-24T10:38:22.409Z,16.98
2022-09-24T10:39:22.402Z,17.21
2022-09-24T10:40:22.518Z,17.21
2022-09-24T10:41:22.373Z,17.23
2022-09-24T10:42:22.344Z,17.19
2022-09-24T10:43:22.381Z,17.19
2022-09-24T10:44:22.335Z,17.14
2022-09-24T10:45:22.316Z,17.03
2022-09-24T10:46:22.338Z,16.91
2022-09-24T10:47:27.312Z,17.01
2022-09-24T10:48:22.281Z,16.97
2022-09-24T10:49:22.296Z,17.07
2022-09-24T10:50:22.254Z,17.06
2022-09-24T10:51:26.584Z,17.03
2022-09-24T10:52:23.233Z,17.06
2022-09-24T10:53:22.223Z,17.18
2022-09-24T10:54:22.249Z,17.21
2022-09-24T10:55:22.226Z,17.15
2022-09-24T10:56:22.191Z,17.22
2022-09-24T10:57:22.180Z,17.31
2022-09-24T10:58:27.190Z,17.30
2022-09-24T10:59:22.169Z,17.22
2022-09-24T11:00:22.166Z,17.40
2022-09-24T11:01:22.214Z,17.48
2022-09-24T11:02:22.234Z,17.51
2022-09-24T11:03:22.244Z,17.43
2022-09-24T11:04:22.137Z,17.36
2022-09-24T11:05:22.089Z,17.38
2022-09-24T11:06:22.110Z,17.36
2022-09-24T11:07:22.069Z,17.25
2022-09-24T11:08:22.052Z,17.38
2022-09-24T11:09:27.094Z,17.30
2022-09-24T11:10:22.030Z,17.34
2022-09-24T11:11:22.022Z,17.40
2022-09-24T11:12:22.007Z,17.44
2022-09-24T11:13:21.997Z,17.49
2022-09-24T11:14:22.001Z,17.52
2022-09-24T11:15:21.995Z,17.59
2022-09-24T11:16:22.080Z,17.63
2022-09-24T11:17:21.957Z,17.70
2022-09-24T11:18:21.957Z,17.64
2022-09-24T11:19:21.940Z,17.66
2022-09-24T11:20:26.940Z,17.71
2022-09-24T11:21:21.912Z,17.64
2022-09-24T11:22:21.910Z,17.58
2022-09-24T11:23:21.885Z,17.66
2022-09-24T11:24:21.885Z,17.59
2022-09-24T11:25:21.965Z,17.64
2022-09-24T11:26:21.859Z,17.58
2022-09-24T11:27:21.846Z,17.54
2022-09-24T11:28:21.876Z,17.54
2022-09-24T11:29:21.844Z,17.54
2022-09-24T11:30:21.821Z,17.54
2022-09-24T11:31:26.933Z,17.52
2022-09-24T11:32:21.786Z,17.49
2022-09-24T11:33:23.202Z,17.56
2022-09-24T11:34:21.794Z,17.54
2022-09-24T11:35:21.754Z,17.51
2022-09-24T11:36:21.741Z,17.58
2022-09-24T11:37:21.777Z,17.62
2022-09-24T11:38:21.720Z,17.75
2022-09-24T11:39:21.724Z,17.75
2022-09-24T11:40:21.770Z,17.81
2022-09-24T11:41:21.708Z,17.82
2022-09-24T11:42:26.695Z,17.82
2022-09-24T11:43:21.686Z,17.89
2022-09-24T11:44:21.669Z,17.97
2022-09-24T11:45:21.643Z,17.96
2022-09-24T11:46:21.702Z,17.86
2022-09-24T11:47:21.622Z,18.03
2022-09-24T11:48:21.628Z,17.97
2022-09-24T11:49:21.605Z,17.99
2022-09-24T11:50:21.589Z,18.02
2022-09-24T11:51:21.574Z,17.95
2022-09-24T11:52:21.558Z,17.99
2022-09-24T11:53:26.572Z,17.99
2022-09-24T11:54:21.559Z,17.97
2022-09-24T11:55:21.530Z,18.11
2022-09-24T11:56:21.517Z,18.03
2022-09-24T11:57:21.521Z,18.11
2022-09-24T11:58:21.490Z,18.21
2022-09-24T11:59:21.499Z,18.17
2022-09-24T12:00:21.470Z,18.23
2022-09-24T12:01:21.502Z,18.35
2022-09-24T12:02:21.509Z,18.37
2022-09-24T12:03:25.927Z,18.44
2022-09-24T12:04:27.465Z,18.44
2022-09-24T12:05:21.418Z,18.54
2022-09-24T12:06:21.406Z,18.60
2022-09-24T12:07:21.393Z,18.69
2022-09-24T12:08:21.427Z,18.73
2022-09-24T12:09:21.376Z,18.70
2022-09-24T12:10:21.377Z,18.66
2022-09-24T12:11:21.359Z,18.72
2022-09-24T12:12:21.337Z,18.78
2022-09-24T12:13:21.353Z,18.81
2022-09-24T12:14:21.449Z,18.57
2022-09-24T12:15:26.328Z,18.37
2022-09-24T12:16:21.398Z,18.33
2022-09-24T12:17:21.281Z,18.26
2022-09-24T12:18:21.282Z,18.36
2022-09-24T12:19:21.284Z,18.39
2022-09-24T12:20:21.246Z,18.62
2022-09-24T12:21:21.242Z,18.47
2022-09-24T12:22:21.228Z,18.52
2022-09-24T12:23:21.215Z,18.48
2022-09-24T12:24:21.256Z,18.58
2022-09-24T12:25:21.194Z,18.57
2022-09-24T12:26:26.215Z,18.60
2022-09-24T12:27:21.171Z,18.66
2022-09-24T12:28:21.157Z,18.63
2022-09-24T12:29:21.251Z,18.67
2022-09-24T12:30:21.163Z,18.66
2022-09-24T12:31:21.169Z,18.65
2022-09-24T12:32:21.116Z,18.73
2022-09-24T12:33:21.129Z,18.63
2022-09-24T12:34:21.092Z,18.69
2022-09-24T12:35:21.095Z,18.82
2022-09-24T12:36:21.071Z,18.85
2022-09-24T12:37:26.081Z,18.91
2022-09-24T12:38:21.046Z,18.88
2022-09-24T12:39:21.036Z,18.76
2022-09-24T12:40:21.078Z,18.87
2022-09-24T12:41:21.019Z,18.90
2022-09-24T12:42:21.003Z,18.90
2022-09-24T12:43:20.996Z,18.94
2022-09-24T12:44:22.340Z,19.02
2022-09-24T12:45:21.042Z,18.87
2022-09-24T12:46:21.038Z,18.78
2022-09-24T12:47:21.008Z,18.67
2022-09-24T12:48:25.984Z,18.60
2022-09-24T12:49:20.940Z,18.66
2022-09-24T12:50:20.946Z,18.72
2022-09-24T12:51:20.904Z,18.67
2022-09-24T12:52:20.903Z,18.75
2022-09-24T12:53:20.880Z,18.84
2022-09-24T12:54:20.869Z,18.72
2022-09-24T12:55:20.891Z,18.82
2022-09-24T12:56:20.854Z,18.82
2022-09-24T12:57:25.242Z,18.82
2022-09-24T12:58:21.833Z,18.78
2022-09-24T12:59:25.856Z,18.73
2022-09-24T13:00:20.813Z,18.76
2022-09-24T13:01:21.113Z,18.78
2022-09-24T13:02:20.979Z,18.80
2022-09-24T13:03:20.770Z,18.84
2022-09-24T13:04:20.766Z,18.75
2022-09-24T13:05:20.757Z,18.76
2022-09-24T13:06:20.736Z,18.72
2022-09-24T13:07:20.731Z,18.82
2022-09-24T13:08:20.711Z,18.80
2022-09-24T13:09:25.461Z,18.73
2022-09-24T13:10:26.749Z,18.73
2022-09-24T13:11:20.682Z,18.73
2022-09-24T13:12:20.679Z,18.69
2022-09-24T13:13:20.657Z,18.81
2022-09-24T13:14:20.646Z,18.75
2022-09-24T13:15:23.901Z,18.78
2022-09-24T13:16:21.727Z,18.78
2022-09-24T13:17:20.646Z,18.80
2022-09-24T13:18:20.626Z,18.80
2022-09-24T13:19:20.590Z,18.80
2022-09-24T13:20:20.591Z,18.85
2022-09-24T13:21:25.594Z,18.81
2022-09-24T13:22:20.557Z,18.80
2022-09-24T13:23:20.545Z,18.75
2022-09-24T13:24:20.536Z,18.67
2022-09-24T13:25:20.534Z,18.67
2022-09-24T13:26:20.511Z,18.72
2022-09-24T13:27:20.504Z,18.73
2022-09-24T13:28:20.494Z,18.78
2022-09-24T13:29:20.496Z,18.81
2022-09-24T13:30:20.476Z,18.87
2022-09-24T13:31:20.481Z,18.87
2022-09-24T13:32:25.526Z,18.88
2022-09-24T13:33:20.435Z,18.95
2022-09-24T13:34:20.424Z,18.85
2022-09-24T13:35:22.277Z,18.85
2022-09-24T13:36:20.415Z,18.91
2022-09-24T13:37:20.397Z,18.81
2022-09-24T13:38:20.378Z,18.75
2022-09-24T13:39:20.399Z,18.69
2022-09-24T13:40:20.445Z,18.81
2022-09-24T13:41:20.346Z,18.69
2022-09-24T13:42:20.341Z,18.66
2022-09-24T13:43:25.347Z,18.57
2022-09-24T13:44:20.311Z,18.67
2022-09-24T13:45:20.316Z,18.72
2022-09-24T13:46:20.394Z,18.76
2022-09-24T13:47:20.278Z,18.76
2022-09-24T13:48:20.285Z,18.73
2022-09-24T13:49:20.268Z,18.78
2022-09-24T13:50:20.256Z,18.76
2022-09-24T13:51:20.243Z,18.78
2022-09-24T13:52:20.223Z,18.82
2022-09-24T13:53:20.218Z,18.82
2022-09-24T13:54:25.224Z,18.78
2022-09-24T13:55:20.207Z,18.82
2022-09-24T13:56:20.180Z,18.92
2022-09-24T13:57:20.167Z,18.84
2022-09-24T13:58:20.154Z,18.81
2022-09-24T13:59:20.145Z,18.75
2022-09-24T14:00:20.224Z,18.81
2022-09-24T14:01:20.196Z,18.72
2022-09-24T14:02:20.340Z,18.69
2022-09-24T14:03:20.181Z,18.66
2022-09-24T14:04:20.108Z,18.66
2022-09-24T14:05:25.104Z,18.65
2022-09-24T14:06:20.096Z,18.52
2022-09-24T14:07:20.061Z,18.51
2022-09-24T14:08:20.054Z,18.58
2022-09-24T14:09:20.034Z,18.52
2022-09-24T14:10:20.022Z,18.52
2022-09-24T14:11:20.031Z,18.62
2022-09-24T14:12:20.020Z,18.58
2022-09-24T14:13:19.993Z,18.66
2022-09-24T14:14:19.984Z,18.70
2022-09-24T14:15:19.972Z,18.65
2022-09-24T14:16:25.049Z,18.65
2022-09-24T14:17:19.946Z,18.66
2022-09-24T14:18:19.958Z,18.66
2022-09-24T14:19:19.937Z,18.67
2022-09-24T14:20:19.950Z,18.75
2022-09-24T14:21:19.918Z,18.75
2022-09-24T14:22:19.904Z,18.84
2022-09-24T14:23:19.895Z,18.80
2022-09-24T14:24:19.867Z,18.92
2022-09-24T14:25:19.855Z,18.85
2022-09-24T14:26:19.882Z,18.90
2022-09-24T14:27:24.860Z,18.88
2022-09-24T14:28:20.201Z,18.88
2022-09-24T14:29:19.811Z,18.88
2022-09-24T14:30:19.826Z,18.90
2022-09-24T14:31:19.846Z,18.99
2022-09-24T14:32:19.777Z,18.87
2022-09-24T14:33:19.770Z,18.95
2022-09-24T14:34:19.760Z,19.00
2022-09-24T14:35:19.742Z,18.98
2022-09-24T14:36:19.770Z,18.99
2022-09-24T14:37:19.730Z,19.07
2022-09-24T14:38:24.731Z,19.06
2022-09-24T14:39:19.703Z,18.95
2022-09-24T14:40:19.770Z,18.98
2022-09-24T14:41:19.689Z,18.92
2022-09-24T14:42:19.663Z,18.90
2022-09-24T14:43:19.666Z,18.90
2022-09-24T14:44:19.664Z,18.88
2022-09-24T14:45:19.637Z,18.80
2022-09-24T14:46:19.698Z,18.81
2022-09-24T14:47:19.646Z,18.90
2022-09-24T14:48:19.612Z,18.84
2022-09-24T14:49:24.659Z,18.82
2022-09-24T14:50:19.575Z,18.81
2022-09-24T14:51:19.576Z,18.80
2022-09-24T14:52:19.576Z,18.80
2022-09-24T14:53:19.571Z,18.62
2022-09-24T14:54:19.548Z,18.70
2022-09-24T14:55:19.523Z,18.67
2022-09-24T14:56:19.529Z,18.80
2022-09-24T14:57:19.497Z,18.76
2022-09-24T14:58:19.484Z,18.75
2022-09-24T14:59:19.476Z,18.72
2022-09-24T15:00:24.501Z,18.81
2022-09-24T15:01:19.557Z,18.78
2022-09-24T15:02:19.762Z,18.78
2022-09-24T15:03:19.431Z,18.85
2022-09-24T15:04:19.507Z,18.78
2022-09-24T15:05:19.587Z,18.69
2022-09-24T15:06:19.417Z,18.72
2022-09-24T15:07:19.381Z,18.75
2022-09-24T15:08:19.491Z,18.63
2022-09-24T15:09:19.361Z,18.70
2022-09-24T15:10:19.353Z,18.69
2022-09-24T15:11:24.393Z,18.75
2022-09-24T15:12:19.327Z,18.62
2022-09-24T15:13:19.314Z,18.73
2022-09-24T15:14:19.305Z,18.70
2022-09-24T15:15:19.295Z,18.69
2022-09-24T15:16:19.380Z,18.70
2022-09-24T15:17:19.277Z,18.72
2022-09-24T15:18:19.295Z,18.78
2022-09-24T15:19:19.320Z,18.78
2022-09-24T15:20:19.239Z,18.76
2022-09-24T15:21:19.241Z,18.80
2022-09-24T15:22:24.242Z,18.80
2022-09-24T15:23:19.202Z,18.84
2022-09-24T15:24:20.243Z,18.87
2022-09-24T15:25:19.205Z,18.92
2022-09-24T15:26:19.182Z,18.95
2022-09-24T15:27:19.215Z,18.95
2022-09-24T15:28:19.149Z,19.02
2022-09-24T15:29:19.149Z,18.90
2022-09-24T15:30:19.140Z,18.95
2022-09-24T15:31:19.202Z,19.00
2022-09-24T15:32:19.160Z,18.91
2022-09-24T15:33:24.111Z,18.98
2022-09-24T15:34:20.077Z,18.87
2022-09-24T15:35:19.066Z,18.91
2022-09-24T15:36:19.195Z,18.88
2022-09-24T15:37:19.126Z,18.84
2022-09-24T15:38:19.043Z,18.82
2022-09-24T15:39:19.022Z,18.80
2022-09-24T15:40:19.134Z,18.75
2022-09-24T15:41:19.032Z,18.75
2022-09-24T15:42:19.027Z,18.76
2022-09-24T15:43:19.073Z,18.69
2022-09-24T15:44:26.146Z,18.67
2022-09-24T15:45:18.958Z,18.63
2022-09-24T15:46:19.003Z,18.65
2022-09-24T15:47:18.933Z,18.60
2022-09-24T15:48:18.938Z,18.63
2022-09-24T15:49:18.909Z,18.66
2022-09-24T15:50:18.930Z,18.52
2022-09-24T15:51:18.907Z,18.54
2022-09-24T15:52:18.877Z,18.55
2022-09-24T15:53:18.868Z,18.55
2022-09-24T15:54:18.853Z,18.55
2022-09-24T15:55:23.969Z,18.51
2022-09-24T15:56:18.841Z,18.52
2022-09-24T15:57:18.823Z,18.55
2022-09-24T15:58:19.755Z,18.50
2022-09-24T15:59:18.802Z,18.47
2022-09-24T16:00:18.791Z,18.45
2022-09-24T16:01:18.947Z,18.41
2022-09-24T16:02:18.845Z,18.45
2022-09-24T16:03:18.840Z,18.37
2022-09-24T16:04:18.748Z,18.44
2022-09-24T16:05:18.731Z,18.42
2022-09-24T16:06:23.782Z,18.41
2022-09-24T16:07:18.704Z,18.37
2022-09-24T16:08:18.695Z,18.35
2022-09-24T16:09:18.705Z,18.36
2022-09-24T16:10:18.716Z,18.33
2022-09-24T16:11:18.770Z,18.32
2022-09-24T16:12:18.664Z,18.32
2022-09-24T16:13:18.649Z,18.37
2022-09-24T16:14:18.632Z,18.33
2022-09-24T16:15:18.618Z,18.33
2022-09-24T16:16:18.639Z,18.32
2022-09-24T16:17:23.628Z,18.35
2022-09-24T16:18:18.595Z,18.27
2022-09-24T16:19:18.573Z,18.26
2022-09-24T16:20:18.573Z,18.27
2022-09-24T16:21:18.580Z,18.23
2022-09-24T16:22:20.616Z,18.20
2022-09-24T16:23:18.529Z,18.17
2022-09-24T16:24:18.521Z,18.21
2022-09-24T16:25:18.507Z,18.20
2022-09-24T16:26:18.499Z,18.15
2022-09-24T16:27:18.529Z,18.14
2022-09-24T16:28:23.497Z,18.20
2022-09-24T16:29:18.468Z,18.17
2022-09-24T16:30:18.455Z,18.08
2022-09-24T16:31:18.516Z,18.17
2022-09-24T16:32:18.440Z,18.07
2022-09-24T16:33:18.422Z,18.14
2022-09-24T16:34:18.409Z,18.12
2022-09-24T16:35:18.393Z,18.14
2022-09-24T16:36:18.398Z,18.14
2022-09-24T16:37:18.393Z,18.11
2022-09-24T16:38:22.586Z,18.05
2022-09-24T16:39:23.370Z,18.10
2022-09-24T16:40:18.376Z,18.15
2022-09-24T16:41:18.326Z,18.12
2022-09-24T16:42:18.334Z,18.10
2022-09-24T16:43:18.323Z,18.05
2022-09-24T16:44:18.315Z,18.05
2022-09-24T16:45:18.291Z,18.02
2022-09-24T16:46:20.897Z,18.05
2022-09-24T16:47:18.270Z,18.12
2022-09-24T16:48:18.254Z,18.11
2022-09-24T16:49:18.258Z,18.12
2022-09-24T16:50:23.250Z,18.12
2022-09-24T16:51:18.222Z,18.14
2022-09-24T16:52:18.224Z,18.11